Latest Weather Observations for Luncheon Hill

IDT60801

Issued at 4:32 pm EST Thursday 28 July 2016 (issued every 30 minutes, with the page automatically refreshed every 10 minutes)

About weather observations | Map of weather stations | Latest weather observations for TAS | Other Formats
Station Details ID: 091259 Name: LUNCHEON HILL (FORESTRY) Lat: -41.15 Lon: 145.15 Height: 344.0 m
Data from the previous 72 hours. | See also: Recent months at Luncheon Hill
Date/Time
EST
Temp
°C
App
Temp
°C
Dew
Point
°C
Rel
Hum
%
Delta-T
°C
Wind Press
QNH
hPa
Press
MSL
hPa
Rain since
9am
mm
Dir  Spd
km/h
Gust
km/h
Spd
kts
Gust
kts
28/04:30pm 7.5 2.0 7.4 99 0.0 WSW 26 46 14 25 - - 5.2
28/04:07pm 7.8 1.9 7.7 99 0.0 WSW 28 52 15 28 - - 4.8
28/04:00pm 8.0 3.7 7.9 99 0.0 WSW 20 35 11 19 - - 4.8
28/03:30pm 7.8 1.9 7.7 99 0.0 WSW 28 54 15 29 - - 4.8
28/03:00pm 8.1 2.3 8.0 99 0.0 WSW 28 54 15 29 - - 4.6
28/02:42pm 7.9 2.1 7.8 99 0.0 WSW 28 48 15 26 - - 4.6
28/02:30pm 8.1 3.5 8.0 99 0.0 WSW 22 46 12 25 - - 4.4
28/02:13pm 8.0 2.2 7.9 99 0.0 WSW 28 56 15 30 - - 3.8
28/02:00pm 8.3 3.3 8.2 99 0.0 WSW 24 43 13 23 - - 3.4
28/01:46pm 8.1 2.3 8.0 99 0.0 WSW 28 48 15 26 - - 3.2
28/01:30pm 8.3 3.3 8.2 99 0.0 WSW 24 43 13 23 - - 3.2
28/01:12pm 8.5 2.8 8.4 99 0.0 WSW 28 48 15 26 - - 3.2
28/01:00pm 8.9 3.7 8.8 99 0.0 WSW 26 52 14 28 - - 3.2
28/12:37pm 8.2 2.4 8.1 99 0.0 WSW 28 46 15 25 - - 3.0
28/12:30pm 8.2 3.2 8.1 99 0.0 WSW 24 56 13 30 - - 2.8
28/12:18pm 8.3 2.6 8.2 99 0.0 WSW 28 50 15 27 - - 2.4
28/12:00pm 8.4 3.1 8.3 99 0.0 WSW 26 50 14 27 - - 2.0
28/11:30am 8.4 2.3 8.3 99 0.0 WSW 30 50 16 27 - - 1.6
28/11:00am 8.4 1.9 8.3 99 0.0 WSW 32 61 17 33 - - 1.0
28/10:30am 8.4 2.7 8.3 99 0.0 WSW 28 52 15 28 - - 0.6
28/10:00am 8.5 2.5 8.5 100 0.0 WSW 30 52 16 28 - - 0.2
28/09:30am 8.2 2.1 8.2 100 0.0 WSW 30 52 16 28 - - 0.0
28/09:00am 8.1 2.0 8.1 100 0.0 WSW 30 50 16 27 - - 20.8
28/08:30am 8.1 2.3 8.1 100 0.0 WSW 28 46 15 25 - - 20.6
28/08:03am 8.0 2.2 8.0 100 0.0 WSW 28 52 15 28 - - 20.6
28/08:00am 8.0 2.6 8.0 100 0.0 WSW 26 44 14 24 - - 20.6
28/07:32am 8.1 2.3 8.1 100 0.0 WSW 28 48 15 26 - - 20.4
28/07:30am 8.1 2.7 8.1 100 0.0 WSW 26 48 14 26 - - 20.2
28/07:00am 8.0 3.0 8.0 100 0.0 WSW 24 43 13 23 - - 19.6
28/06:30am 8.0 1.8 8.0 100 0.0 WSW 30 56 16 30 - - 19.2
28/06:23am 8.0 2.2 8.0 100 0.0 WSW 28 48 15 26 - - 19.2
28/06:00am 8.0 3.0 8.0 100 0.0 WSW 24 41 13 22 - - 18.8
28/05:30am 8.0 3.0 8.0 100 0.0 WSW 24 41 13 22 - - 18.8
28/05:01am 8.0 2.2 8.0 100 0.0 WSW 28 52 15 28 - - 18.4
28/05:00am 8.0 2.6 8.0 100 0.0 WSW 26 52 14 28 - - 18.4
28/04:41am 8.0 2.2 8.0 100 0.0 WSW 28 48 15 26 - - 18.4
28/04:30am 8.0 3.0 8.0 100 0.0 W 24 41 13 22 - - 18.2
28/04:00am 8.0 3.0 8.0 100 0.0 WSW 24 43 13 23 - - 17.6
28/03:32am 7.9 2.1 7.9 100 0.0 W 28 46 15 25 - - 17.6
28/03:30am 7.9 2.5 7.9 100 0.0 W 26 46 14 25 - - 17.6
28/03:26am 7.9 2.1 7.9 100 0.0 W 28 46 15 25 - - 17.6
28/03:00am 7.9 3.2 7.8 99 0.0 W 22 37 12 20 - - 17.2
28/02:30am 7.9 3.2 7.8 99 0.0 W 22 35 12 19 - - 16.6
28/02:00am 7.8 3.1 7.7 99 0.0 W 22 33 12 18 - - 16.2
28/01:30am 7.8 3.1 7.7 99 0.0 WSW 22 37 12 20 - - 16.0
28/01:00am 7.7 3.3 7.6 99 0.0 WSW 20 33 11 18 - - 15.4
28/12:30am 7.8 3.5 7.7 99 0.0 W 20 35 11 19 - - 15.2
28/12:00am 7.8 3.5 7.7 99 0.0 WSW 20 35 11 19 - - 15.2
 
Date/Time
EST
Temp
°C
App
Temp
°C
Dew
Point
°C
Rel
Hum
%
Delta-T
°C
Wind Press
QNH
hPa
Press
MSL
hPa
Rain since
9am
mm
Dir  Spd
km/h
Gust
km/h
Spd
kts
Gust
kts
27/11:30pm 7.8 3.5 7.7 99 0.0 WSW 20 32 11 17 - - 15.2
27/11:00pm 7.8 3.7 7.7 99 0.0 WSW 19 33 10 18 - - 15.2
27/10:30pm 7.9 3.2 7.8 99 0.0 WSW 22 39 12 21 - - 14.6
27/10:09pm 7.9 2.1 7.8 99 0.0 WSW 28 48 15 26 - - 14.6
27/10:00pm 8.0 2.6 7.9 99 0.0 WSW 26 46 14 25 - - 14.6
27/09:30pm 8.0 2.2 7.9 99 0.0 WSW 28 57 15 31 - - 14.6
27/09:18pm 8.0 2.2 7.9 99 0.0 WSW 28 46 15 25 - - 14.2
27/09:00pm 8.0 3.0 7.9 99 0.0 WSW 24 41 13 22 - - 13.2
27/08:30pm 8.0 1.8 7.9 99 0.0 WSW 30 59 16 32 - - 12.6
27/08:00pm 8.0 1.8 7.9 99 0.0 WSW 30 52 16 28 - - 10.6
27/07:41pm 7.9 2.1 7.8 99 0.0 W 28 57 15 31 - - 8.6
27/07:30pm 7.8 1.9 7.7 99 0.0 WSW 28 44 15 24 - - 7.8
27/07:00pm 7.7 1.1 7.6 99 0.0 WSW 32 50 17 27 - - 6.6
27/06:34pm 7.4 1.5 7.3 99 0.0 W 28 50 15 27 - - 5.4
27/06:30pm 7.4 2.2 7.3 99 0.0 W 24 44 13 24 - - 5.2
27/06:00pm 6.9 0.8 6.8 99 0.0 WSW 28 46 15 25 - - 4.4
27/05:47pm 6.8 0.7 6.7 99 0.0 W 28 46 15 25 - - 3.8
27/05:30pm 6.4 0.6 6.3 99 0.0 W 26 50 14 27 - - 3.4
27/05:00pm 6.0 0.5 5.7 98 0.1 W 24 41 13 22 - - 2.4
27/04:30pm 5.9 0.3 5.3 96 0.3 W 24 43 13 23 - - 1.4
27/04:00pm 5.9 1.0 5.2 95 0.3 W 20 37 11 20 - - 1.4
27/03:32pm 5.5 -1.0 4.6 94 0.4 WSW 28 63 15 34 - - 1.4
27/03:30pm 5.6 -0.2 4.6 93 0.4 WSW 24 52 13 28 - - 1.2
27/03:00pm 5.6 -0.6 4.1 90 0.7 WSW 26 44 14 24 - - 1.0
27/02:35pm 5.4 -1.3 3.7 89 0.7 WSW 28 50 15 27 - - 1.0
27/02:30pm 5.7 -0.2 3.9 88 0.8 WSW 24 41 13 22 - - 0.8
27/02:00pm 5.5 -1.9 3.8 89 0.7 WSW 32 63 17 34 - - 0.8
27/01:30pm 6.5 -0.1 4.0 84 1.1 WSW 28 48 15 26 - - 0.6
27/01:11pm 5.5 -1.2 3.7 88 0.8 WSW 28 48 15 26 - - 0.4
27/01:00pm 5.6 -1.0 4.1 90 0.7 WSW 28 48 15 26 - - 0.4
27/12:30pm 7.2 2.3 5.0 86 1.0 WSW 20 41 11 22 - - 0.0
27/12:00pm 5.9 0.8 4.1 88 0.8 SW 20 39 11 21 - - 0.0
27/11:30am 5.5 -0.6 3.0 84 1.1 SW 24 43 13 23 - - 0.0
27/11:00am 6.7 -0.2 2.6 75 1.7 WSW 28 46 15 25 - - 0.0
27/10:57am 6.5 -0.5 2.0 73 1.9 WSW 28 46 15 25 - - 0.0
27/10:30am 6.3 0.4 2.0 74 1.8 SW 22 39 12 21 - - 0.0
27/10:00am 5.6 -0.6 2.1 78 1.4 SW 24 43 13 23 - - 0.0
27/09:30am 4.8 -1.5 1.8 81 1.2 SW 24 33 13 18 - - 0.0
27/09:00am 4.1 -2.7 1.0 80 1.2 SW 26 41 14 22 - - 15.0
27/08:30am 3.0 -3.4 1.1 87 0.7 SW 24 37 13 20 - - 15.0
27/08:00am 3.1 -4.1 0.8 85 0.9 SSW 28 35 15 19 - - 15.0
27/07:30am 3.0 -4.5 0.9 86 0.8 SSW 30 43 16 23 - - 15.0
27/07:14am 2.9 -4.6 1.1 88 0.7 SSW 30 48 16 26 - - 15.0
27/07:00am 2.7 -4.8 1.2 90 0.6 SSW 30 44 16 24 - - 15.0
27/06:34am 2.7 -4.4 1.5 92 0.5 SSW 28 46 15 25 - - 15.0
27/06:30am 2.6 -3.7 1.6 93 0.4 SSW 24 39 13 21 - - 15.0
27/06:04am 2.9 -4.4 2.2 95 0.3 SSW 30 48 16 26 - - 15.0
27/06:00am 2.9 -4.4 2.3 96 0.2 SSW 30 46 16 25 - - 15.0
27/05:30am 3.2 -3.6 2.9 98 0.1 SSW 28 50 15 27 - - 15.0
27/05:00am 3.4 -4.2 3.1 98 0.1 SSW 32 50 17 27 - - 14.8
27/04:37am 3.7 -4.3 3.6 99 0.0 SSW 35 54 19 29 - - 14.8
27/04:30am 3.8 -4.2 3.7 99 0.0 SSW 35 52 19 28 - - 14.8
27/04:02am 3.9 -3.5 3.8 99 0.0 SSW 32 50 17 27 - - 14.8
27/04:00am 4.0 -3.6 3.9 99 0.0 SSW 33 48 18 26 - - 14.8
27/03:30am 5.0 -3.6 4.9 99 0.0 SSW 39 61 21 33 - - 14.8
27/03:00am 6.2 0.0 6.2 100 0.0 SW 28 48 15 26 - - 14.6
27/02:59am 6.2 0.0 6.1 99 0.0 SW 28 48 15 26 - - 14.6
27/02:30am 6.4 1.8 6.4 100 0.0 SW 20 39 11 21 - - 14.4
27/02:10am 6.2 0.0 6.2 100 0.0 WSW 28 56 15 30 - - 14.4
27/02:00am 6.1 0.6 6.1 100 0.0 W 24 39 13 21 - - 14.0
27/01:30am 6.1 0.3 6.1 100 0.0 W 26 44 14 24 - - 13.2
27/01:00am 6.3 0.9 6.3 100 0.0 WNW 24 35 13 19 - - 12.8
27/12:30am 6.0 -0.2 6.0 100 0.0 NW 28 37 15 20 - - 12.8
27/12:00am 5.9 0.8 5.9 100 0.0 NW 22 28 12 15 - - 12.2
 
Date/Time
EST
Temp
°C
App
Temp
°C
Dew
Point
°C
Rel
Hum
%
Delta-T
°C
Wind Press
QNH
hPa
Press
MSL
hPa
Rain since
9am
mm
Dir  Spd
km/h
Gust
km/h
Spd
kts
Gust
kts
26/11:30pm 5.7 0.2 5.7 100 0.0 NW 24 35 13 19 - - 11.8
26/11:00pm 5.2 0.3 5.2 100 0.0 WNW 20 33 11 18 - - 11.2
26/10:30pm 4.8 -0.9 4.8 100 0.0 NNW 24 35 13 19 - - 9.6
26/10:00pm 4.8 -0.9 4.8 100 0.0 N 24 33 13 18 - - 8.6
26/09:30pm 4.7 -0.3 4.6 99 0.0 NNW 20 28 11 15 - - 8.2
26/09:00pm 5.0 -1.4 5.0 100 0.0 NNW 28 39 15 21 - - 8.0
26/08:30pm 4.9 -0.8 4.8 99 0.0 N 24 28 13 15 - - 7.4
26/08:00pm 4.6 -0.8 4.5 99 0.0 N 22 28 12 15 - - 7.0
26/07:30pm 4.4 -1.4 4.3 99 0.0 N 24 33 13 18 - - 6.8
26/07:00pm 4.2 -0.9 4.1 99 0.0 N 20 26 11 14 - - 5.8
26/06:30pm 4.0 -0.6 3.7 98 0.1 N 17 24 9 13 - - 5.8
26/06:00pm 3.8 -1.4 3.5 98 0.1 N 20 24 11 13 - - 5.8
26/05:30pm 4.0 -2.0 3.4 96 0.3 NNW 24 30 13 16 - - 5.6
26/05:21pm 3.9 -2.9 3.2 95 0.3 NW 28 46 15 25 - - 5.6
26/05:00pm 4.1 -4.4 2.9 92 0.5 WNW 37 50 20 27 - - 4.8
26/04:55pm 4.2 -3.9 3.0 92 0.5 WNW 35 50 19 27 - - 4.4
26/04:45pm 4.3 -2.5 3.1 92 0.5 NNW 28 54 15 29 - - 3.8
26/04:30pm 4.5 -1.1 3.6 94 0.4 NNW 22 30 12 16 - - 3.6
26/04:00pm 4.7 0.2 4.0 95 0.3 NNW 17 20 9 11 - - 3.6
26/03:30pm 4.9 -0.2 4.0 94 0.4 NW 20 30 11 16 - - 3.6
26/03:00pm 5.4 0.0 4.4 93 0.4 NW 22 30 12 16 - - 3.4
26/02:30pm 5.3 0.5 4.4 94 0.4 NW 19 26 10 14 - - 3.4
26/02:00pm 4.5 0.3 3.6 94 0.4 NW 15 19 8 10 - - 3.2
26/01:30pm 3.6 -3.7 2.4 92 0.5 W 30 52 16 28 - - 3.0
26/01:13pm 4.8 -1.9 3.8 93 0.4 NW 28 46 15 25 - - 2.0
26/01:00pm 5.5 0.2 3.2 85 1.0 WNW 20 30 11 16 - - 1.8
26/12:30pm 4.6 -3.2 2.8 88 0.7 WNW 33 57 18 31 - - 1.8
26/12:20pm 5.3 -1.4 3.5 88 0.8 WNW 28 50 15 27 - - 1.8
26/12:00pm 6.6 1.1 4.1 84 1.1 WNW 22 39 12 21 - - 1.4
26/11:30am 4.8 -1.7 2.8 87 0.8 W 26 52 14 28 - - 1.4
26/11:00am 6.0 1.5 4.0 87 0.9 W 17 32 9 17 - - 0.6
26/10:30am 3.4 -3.6 2.2 92 0.5 WSW 28 54 15 29 - - 0.6
26/10:27am 3.5 -3.5 2.0 90 0.6 WSW 28 54 15 29 - - 0.4
26/10:00am 5.4 0.3 2.9 84 1.1 W 19 28 10 15 - - 0.0
26/09:30am 4.2 -1.2 2.4 88 0.7 WSW 20 35 11 19 - - 0.0
26/09:00am 3.6 -1.7 2.0 89 0.6 WSW 19 32 10 17 - - 16.8
26/08:30am 3.1 -2.5 1.5 89 0.6 W 20 35 11 19 - - 16.8
26/08:00am 3.1 -2.5 1.5 89 0.6 W 20 39 11 21 - - 16.4
26/07:37am 3.2 -3.9 1.1 86 0.8 WSW 28 50 15 27 - - 16.0
26/07:30am 3.7 -2.4 0.6 80 1.2 WSW 22 39 12 21 - - 15.8
26/07:00am 3.4 -2.3 0.5 81 1.1 WSW 20 30 11 16 - - 15.8
26/06:30am 3.3 -2.8 0.2 80 1.2 WSW 22 46 12 25 - - 15.8
26/06:14am 3.6 -3.7 0.1 78 1.3 WSW 28 52 15 28 - - 15.8
26/06:00am 3.1 -2.5 1.2 87 0.7 WSW 20 32 11 17 - - 15.8
26/05:30am 3.4 -3.4 0.8 83 1.0 WSW 26 46 14 25 - - 15.8
26/05:22am 3.5 -3.6 1.1 84 0.9 WSW 28 46 15 25 - - 15.8
26/05:00am 3.0 -2.9 1.5 90 0.6 W 22 35 12 19 - - 15.8
26/04:30am 2.1 -4.7 1.1 93 0.4 WSW 26 39 14 21 - - 15.8
26/04:00am 3.6 -3.9 1.0 83 1.0 W 30 57 16 31 - - 15.2
26/03:51am 3.4 -3.7 1.3 86 0.8 W 28 48 15 26 - - 15.2
26/03:30am 3.3 -2.9 2.0 91 0.5 W 24 41 13 22 - - 15.2
26/03:00am 3.4 -3.7 1.4 87 0.8 W 28 54 15 29 - - 15.2
26/02:30am 3.4 -3.8 0.8 83 1.0 W 28 48 15 26 - - 15.0
26/02:00am 3.7 -3.7 1.6 86 0.8 W 30 48 16 26 - - 15.0
26/01:30am 3.2 -4.2 1.7 90 0.6 W 30 48 16 26 - - 15.0
26/01:02am 3.0 -4.1 1.5 90 0.6 W 28 50 15 27 - - 14.6
26/01:00am 2.9 -3.8 1.4 90 0.6 W 26 50 14 27 - - 14.4
26/12:36am 2.5 -4.6 1.2 91 0.5 WSW 28 50 15 27 - - 13.6
26/12:30am 3.5 -3.1 1.9 89 0.6 W 26 41 14 22 - - 13.2
26/12:12am 3.8 -2.8 2.0 88 0.7 W 26 48 14 26 - - 13.0
26/12:00am 3.8 -2.8 2.0 88 0.7 WNW 26 43 14 23 - - 13.0
 
Date/Time
EST
Temp
°C
App
Temp
°C
Dew
Point
°C
Rel
Hum
%
Delta-T
°C
Wind Press
QNH
hPa
Press
MSL
hPa
Rain since
9am
mm
Dir  Spd
km/h
Gust
km/h
Spd
kts
Gust
kts
25/11:30pm 3.4 -3.9 2.2 92 0.5 W 30 52 16 28 - - 13.0
25/11:00pm 2.8 -4.6 1.6 92 0.5 WSW 30 48 16 26 - - 12.8
25/10:30pm 3.9 -4.0 2.3 89 0.7 W 33 65 18 35 - - 12.6
25/10:23pm 3.9 -3.4 2.3 89 0.7 W 30 65 16 35 - - 12.4
25/10:04pm 3.7 -3.2 2.5 92 0.5 W 28 46 15 25 - - 12.4
25/10:00pm 3.7 -2.4 2.5 92 0.5 W 24 41 13 22 - - 12.4
25/09:30pm 3.6 -4.6 2.7 94 0.4 W 35 63 19 34 - - 12.4
25/09:00pm 4.3 -3.9 2.8 90 0.6 WNW 35 56 19 30 - - 12.0
25/08:36pm 4.3 -3.2 3.3 93 0.4 WNW 32 54 17 29 - - 11.2
25/08:30pm 4.8 -2.3 3.8 93 0.4 WNW 30 41 16 22 - - 10.6
25/08:00pm 4.8 -1.8 4.4 97 0.2 WNW 28 48 15 26 - - 10.4
25/07:30pm 4.5 -1.7 4.1 97 0.2 W 26 50 14 27 - - 10.2
25/07:00pm 4.8 -4.6 4.4 97 0.2 W 43 78 23 42 - - 10.2
25/06:58pm 4.8 -4.2 4.4 97 0.2 W 41 78 22 42 - - 10.2
25/06:30pm 5.8 -3.6 5.5 98 0.1 WNW 44 82 24 44 - - 9.4
25/06:18pm 5.5 -3.0 5.2 98 0.1 WNW 39 76 21 41 - - 9.2
25/06:04pm 5.8 -5.1 5.7 99 0.0 NW 52 74 28 40 - - 8.4
25/06:00pm 5.9 -4.6 5.8 99 0.0 NNW 50 74 27 40 - - 8.2
25/05:44pm 5.9 -3.2 5.8 99 0.0 N 43 61 23 33 - - 6.4
25/05:42pm 5.9 -3.8 5.8 99 0.0 NNW 46 63 25 34 - - 6.4
25/05:30pm 6.0 -5.8 5.9 99 0.0 NNW 57 80 31 43 - - 6.4
25/05:01pm 6.3 -3.7 6.0 98 0.1 N 48 76 26 41 - - 4.4
25/05:00pm 6.5 -3.1 6.2 98 0.1 N 46 63 25 34 - - 4.2

Other Formats:

Comma delimited format used in spreadsheet applications
http://www.bom.gov.au/fwo/IDT60801/IDT60801.95956.axf

JavaScript Object Notation format (JSON) in row-major order
http://www.bom.gov.au/fwo/IDT60801/IDT60801.95956.json